createdAt,value
2022-11-29T00:01:39.861Z,70.42
2022-11-29T00:04:07.787Z,70.36
2022-11-29T00:06:36.196Z,69.68
2022-11-29T00:09:07.726Z,69.91
2022-11-29T00:11:56.186Z,69.34
2022-11-29T00:14:24.919Z,69.38
2022-11-29T00:16:56.204Z,69.21
2022-11-29T00:19:23.889Z,68.97
2022-11-29T00:21:51.445Z,70.10
2022-11-29T00:24:19.300Z,69.14
2022-11-29T00:26:46.985Z,69.12
2022-11-29T00:29:14.636Z,68.83
2022-11-29T00:31:43.358Z,69.08
2022-11-29T00:34:12.317Z,68.89
2022-11-29T00:36:40.545Z,68.80
2022-11-29T00:39:11.817Z,68.08
2022-11-29T00:41:40.389Z,69.70
2022-11-29T00:44:09.140Z,68.44
2022-11-29T00:46:37.417Z,68.32
2022-11-29T00:49:05.788Z,68.12
2022-11-29T00:51:34.178Z,67.67
2022-11-29T00:54:01.820Z,67.84
2022-11-29T00:56:29.820Z,68.38
2022-11-29T00:58:57.695Z,68.23
2022-11-29T01:01:25.453Z,68.78
2022-11-29T01:03:53.147Z,68.84
2022-11-29T01:06:21.152Z,69.42
2022-11-29T01:08:49.622Z,69.10
2022-11-29T01:11:23.405Z,69.01
2022-11-29T01:13:54.876Z,69.16
2022-11-29T01:16:23.034Z,68.95
2022-11-29T01:18:52.216Z,68.95
2022-11-29T01:21:21.927Z,69.02
2022-11-29T01:23:51.602Z,68.77
2022-11-29T01:26:22.781Z,69.14
2022-11-29T01:28:52.316Z,68.53
2022-11-29T01:31:26.036Z,68.69
2022-11-29T01:33:55.538Z,69.06
2022-11-29T01:36:24.233Z,69.03
2022-11-29T01:38:52.519Z,68.71
2022-11-29T01:41:23.363Z,68.49
2022-11-29T01:44:26.119Z,67.82
2022-11-29T01:46:54.493Z,68.62
2022-11-29T01:49:44.212Z,69.44
2022-11-29T01:52:22.144Z,69.24
2022-11-29T01:54:55.455Z,69.56
2022-11-29T01:57:23.314Z,70.75
2022-11-29T01:59:56.448Z,70.52
2022-11-29T02:02:33.313Z,71.27
2022-11-29T02:05:03.379Z,71.07
2022-11-29T02:07:31.614Z,71.43
2022-11-29T02:09:59.325Z,72.20
2022-11-29T02:13:10.311Z,71.61
2022-11-29T02:15:49.536Z,72.03
2022-11-29T02:19:19.174Z,72.35
2022-11-29T02:21:58.287Z,73.63
2022-11-29T02:25:03.308Z,73.54
2022-11-29T02:31:34.164Z,76.69
2022-11-29T02:34:39.475Z,74.11
2022-11-29T02:37:31.331Z,73.41
2022-11-29T02:40:28.800Z,72.64
2022-11-29T02:43:15.429Z,72.92
2022-11-29T02:45:53.912Z,73.86
2022-11-29T02:49:01.118Z,73.44
2022-11-29T02:51:56.961Z,72.67
2022-11-29T02:54:48.196Z,72.26
2022-11-29T02:57:37.316Z,72.84
2022-11-29T03:00:13.766Z,71.71
2022-11-29T03:03:03.941Z,71.67
2022-11-29T03:05:50.150Z,72.07
2022-11-29T03:08:47.106Z,71.80
2022-11-29T03:11:25.838Z,71.64
2022-11-29T03:14:26.792Z,71.16
2022-11-29T03:16:57.082Z,70.78
2022-11-29T03:20:07.794Z,71.66
2022-11-29T03:22:38.380Z,71.02
2022-11-29T03:25:09.175Z,71.00
2022-11-29T03:27:43.747Z,71.27
2022-11-29T03:30:15.922Z,71.28
2022-11-29T03:32:49.631Z,70.71
2022-11-29T03:35:32.626Z,70.87
2022-11-29T03:38:13.117Z,71.09
2022-11-29T03:41:15.767Z,70.28
2022-11-29T03:43:49.330Z,70.97
2022-11-29T03:46:54.754Z,70.86
2022-11-29T03:49:47.779Z,70.28
2022-11-29T03:52:32.362Z,70.59
2022-11-29T03:55:08.993Z,70.02
2022-11-29T03:58:05.804Z,69.66
2022-11-29T04:00:45.930Z,69.93
2022-11-29T04:03:49.845Z,69.69
2022-11-29T04:06:46.283Z,69.36
2022-11-29T04:09:20.377Z,70.02
2022-11-29T04:11:58.943Z,69.58
2022-11-29T04:15:00.838Z,69.94
2022-11-29T04:17:47.356Z,69.76
2022-11-29T04:20:40.381Z,69.96
2022-11-29T04:23:27.727Z,69.82
2022-11-29T04:26:19.970Z,69.70
2022-11-29T04:29:05.925Z,70.09
2022-11-29T04:32:02.655Z,70.89
2022-11-29T04:34:56.484Z,71.99
2022-11-29T04:37:51.658Z,71.39
2022-11-29T04:40:37.432Z,71.00
2022-11-29T04:43:14.163Z,70.85
2022-11-29T04:45:47.604Z,70.18
2022-11-29T04:48:30.687Z,70.10
2022-11-29T04:51:33.634Z,71.37
2022-11-29T04:54:26.201Z,72.37
2022-11-29T04:57:21.496Z,72.38
2022-11-29T05:00:09.969Z,73.32
2022-11-29T05:03:27.079Z,72.52
2022-11-29T05:06:07.802Z,72.40
2022-11-29T05:08:49.330Z,72.16
2022-11-29T05:12:00.057Z,72.22
2022-11-29T05:14:43.909Z,73.16
2022-11-29T05:17:23.857Z,72.50
2022-11-29T05:20:03.904Z,71.69
2022-11-29T05:22:34.505Z,71.87
2022-11-29T05:25:34.883Z,71.81
2022-11-29T05:28:11.705Z,72.40
2022-11-29T05:31:00.872Z,73.16
2022-11-29T05:33:53.268Z,72.66
2022-11-29T05:36:39.993Z,73.59
2022-11-29T05:39:15.388Z,75.57
2022-11-29T05:42:08.547Z,75.83
2022-11-29T05:44:49.028Z,73.93
2022-11-29T05:47:40.207Z,74.93
2022-11-29T05:50:21.699Z,73.47
2022-11-29T05:53:23.615Z,73.79
2022-11-29T05:56:05.172Z,74.25
2022-11-29T05:58:54.414Z,74.53
2022-11-29T06:01:29.653Z,74.16
2022-11-29T06:04:15.196Z,73.69
2022-11-29T06:07:11.220Z,74.03
2022-11-29T06:09:48.282Z,73.44
2022-11-29T06:12:21.556Z,74.15
2022-11-29T06:15:18.705Z,74.40
2022-11-29T06:18:25.389Z,73.21
2022-11-29T06:21:24.026Z,74.03
2022-11-29T06:24:30.960Z,74.75
2022-11-29T06:27:02.409Z,73.80
2022-11-29T06:29:43.531Z,73.66
2022-11-29T06:32:25.294Z,74.92
2022-11-29T06:35:07.648Z,76.80
2022-11-29T06:37:38.848Z,75.32
2022-11-29T06:40:10.632Z,77.15
2022-11-29T06:42:38.574Z,76.23
2022-11-29T06:45:06.834Z,76.08
2022-11-29T06:47:49.178Z,76.47
2022-11-29T06:50:29.217Z,75.58
